Strona główna
METAR-TAF:

METAR-TAF

Lotnisko :

Port lotniczy Nakhon Si Thammarat

Nakhon Si Thammarat, Tajlandia

Szerokość geograficzna: 8-32-22N, Długość geograficzna: 99-56-41E, wysokość: 4 m

Aktualna obserwacja pogody

Raport powstał 1 godzina i 59 minut temu, godzina 13:00 UTC
Wiatr 4 kt od południowy wschód, zmienny między wschód i południowo-południowy wschód
Temperatura 29°C
Wilgotność 74%
Ciśnienie 1011 hPa
Widzialność: 8000 m
Mało chmury na wysokości 1800 ft

METAR: VTSF 271300Z 13004KT 100V160 8000 FEW018 29/24 Q1011 NOSIG

czas: 21:59 (14:59 UTC)

Prognoza

Raport powstał 3 godziny i 59 minut temu, godzina 11:00 UTC
Prognoza ważna od 27 godzina 12 UTC do 28 godzina 12 UTC
Wiatr 5 kt od wschód
Widzialność: 9000 m
Mało chmury na wysokości 2000 ft

TAF: VTSF 271100Z 2712/2812 10005KT 9000 FEW020

Obserwacja i prognoza pogody dla ponad 4000 lotnisk (raport METAR i TAF).

Dostępne stacje oznaczono żółtymi i czerwonymi punktami na mapie.

Najedź kursorem aby zobaczyć nazwę stacji.

Kliknij aby zobaczyć obserwacje i prognozy pogody.

Aby zmienić mapę: kliknij na zielony przycisk z czarnym krzyżykiem, aby powiększyć; na zielony przycisk z myślnikiem, aby pomniejszyć; na zielone strzałki, aby przejść do map sąsiednich.


METAR-TAF: